Time;durP1;ratioP1;P1;durP2;ratioP2;P2;SDS_P1;SDS_P2;PMS_P1;PMS_P2;Temp;Humidity;BMP_temperature;BMP_pressure;BME280_temperature;BME280_humidity;BME280_pressure;Samples;Min_cycle;Max_cycle;Signal;HPM_P1;HPM_P2
2023/06/18 00:01:56;;;;;;;14.88;13.65;;;;;;;;;;5035882;28;20131;-81
2023/06/18 00:04:22;;;;;;;14.60;13.45;;;;;;;;;;5019594;28;20041;-81
2023/06/18 00:06:48;;;;;;;15.40;14.20;;;;;;;;;;5036773;28;20049;-82
2023/06/18 00:09:15;;;;;;;14.25;13.13;;;;;;;;;;5036366;28;20049;-81
2023/06/18 00:11:41;;;;;;;13.63;12.63;;;;;;;;;;5035847;28;20052;-81
2023/06/18 00:14:07;;;;;;;14.43;13.32;;;;;;;;;;5036667;28;20089;-81
2023/06/18 00:16:33;;;;;;;15.75;14.52;;;;;;;;;;5035614;28;20048;-81
2023/06/18 00:18:59;;;;;;;15.43;14.13;;;;;;;;;;5018904;28;20041;-81
2023/06/18 00:21:26;;;;;;;14.40;13.25;;;;;;;;;;5036497;28;20045;-82
2023/06/18 00:23:52;;;;;;;15.68;14.27;;;;;;;;;;5035566;28;20121;-81
2023/06/18 00:26:18;;;;;;;15.80;14.48;;;;;;;;;;5035875;28;20107;-81
2023/06/18 00:28:45;;;;;;;15.98;14.68;;;;;;;;;;5035105;28;20505;-81
2023/06/18 00:31:13;;;;;;;15.40;14.10;;;;;;;;;;5036326;28;20045;-81
2023/06/18 00:33:39;;;;;;;16.27;15.02;;;;;;;;;;5034864;28;20049;-81
2023/06/18 00:36:06;;;;;;;15.93;14.52;;;;;;;;;;5035121;28;20469;-81
2023/06/18 00:38:33;;;;;;;15.15;13.98;;;;;;;;;;5034847;28;20053;-81
2023/06/18 00:41:00;;;;;;;18.23;16.73;;;;;;;;;;5034950;28;20053;-81
2023/06/18 00:43:29;;;;;;;17.75;16.35;;;;;;;;;;5035269;28;20139;-81
2023/06/18 00:46:00;;;;;;;16.70;15.38;;;;;;;;;;5018686;28;20049;-81
2023/06/18 00:48:27;;;;;;;18.02;16.48;;;;;;;;;;5035411;28;20490;-82
2023/06/18 00:50:53;;;;;;;16.95;15.35;;;;;;;;;;5036041;28;20041;-80
2023/06/18 00:53:20;;;;;;;16.85;15.35;;;;;;;;;;5035968;28;20053;-81
2023/06/18 00:55:46;;;;;;;16.70;15.43;;;;;;;;;;5034945;28;20057;-81
2023/06/18 00:58:13;;;;;;;18.02;16.55;;;;;;;;;;5034731;28;20107;-81
2023/06/18 01:00:40;;;;;;;19.30;17.70;;;;;;;;;;5035851;28;20529;-81
2023/06/18 01:03:16;;;;;;;18.85;17.08;;;;;;;;;;5034866;28;20481;-80
2023/06/18 01:05:50;;;;;;;21.75;19.77;;;;;;;;;;5034599;28;20061;-81
2023/06/18 01:08:17;;;;;;;18.98;17.25;;;;;;;;;;5034112;28;20062;-81
2023/06/18 01:10:43;;;;;;;19.23;17.73;;;;;;;;;;5035732;28;20060;-81
2023/06/18 01:13:11;;;;;;;20.52;18.83;;;;;;;;;;5035579;28;20129;-81
2023/06/18 01:15:38;;;;;;;20.30;18.60;;;;;;;;;;5035260;28;20057;-82
2023/06/18 01:18:06;;;;;;;19.20;17.60;;;;;;;;;;5034280;28;20128;-81
2023/06/18 01:20:40;;;;;;;20.80;18.75;;;;;;;;;;5034270;28;20099;-81
2023/06/18 01:23:09;;;;;;;19.98;18.40;;;;;;;;;;5034566;28;20072;-81
2023/06/18 01:25:37;;;;;;;18.90;17.20;;;;;;;;;;5034301;28;20049;-82
2023/06/18 01:28:07;;;;;;;21.52;19.67;;;;;;;;;;5017964;28;20068;-81
2023/06/18 01:30:39;;;;;;;20.10;18.38;;;;;;;;;;5033755;28;20049;-81
2023/06/18 01:33:09;;;;;;;20.30;18.60;;;;;;;;;;5034364;28;20053;-81
2023/06/18 01:35:35;;;;;;;21.63;19.70;;;;;;;;;;5035218;28;20076;-81
2023/06/18 01:38:20;;;;;;;21.40;19.65;;;;;;;;;;5033402;28;20505;-81
2023/06/18 01:40:46;;;;;;;;;;;;;;;;;;5035725;28;20049;-81
2023/06/18 01:43:17;;;;;;;21.75;19.85;;;;;;;;;;5034322;28;19921;-81
2023/06/18 01:45:48;;;;;;;21.38;19.48;;;;;;;;;;5034980;28;20049;-81
2023/06/18 01:48:15;;;;;;;21.83;19.85;;;;;;;;;;5017692;28;20041;-81
2023/06/18 01:50:42;;;;;;;22.45;20.55;;;;;;;;;;5034933;28;20055;-81
2023/06/18 01:53:10;;;;;;;20.90;19.25;;;;;;;;;;5034708;28;20424;-82
2023/06/18 01:55:37;;;;;;;23.65;21.67;;;;;;;;;;5017273;28;20045;-81
2023/06/18 01:58:03;;;;;;;23.90;21.63;;;;;;;;;;5033556;28;20048;-82
2023/06/18 02:00:29;;;;;;;24.40;22.25;;;;;;;;;;5034801;28;20073;-81
2023/06/18 02:02:56;;;;;;;24.20;22.10;;;;;;;;;;5034537;28;20088;-81
2023/06/18 02:05:22;;;;;;;21.58;19.67;;;;;;;;;;5033548;28;20045;-80
2023/06/18 02:07:48;;;;;;;21.98;20.17;;;;;;;;;;5034026;28;20056;-81
2023/06/18 02:10:14;;;;;;;22.98;20.88;;;;;;;;;;5034623;28;20393;-81
2023/06/18 02:12:40;;;;;;;25.00;22.83;;;;;;;;;;5033376;28;20042;-81
2023/06/18 02:15:06;;;;;;;23.40;21.30;;;;;;;;;;5033491;28;20055;-80
2023/06/18 02:17:32;;;;;;;21.50;19.65;;;;;;;;;;5015789;28;20038;-81
2023/06/18 02:19:59;;;;;;;21.40;19.40;;;;;;;;;;5034426;28;20534;-81
2023/06/18 02:22:25;;;;;;;21.50;19.58;;;;;;;;;;5034382;28;20053;-81
2023/06/18 02:24:51;;;;;;;26.95;24.55;;;;;;;;;;5034295;28;20103;-81
2023/06/18 02:27:17;;;;;;;25.17;22.88;;;;;;;;;;5033390;28;20057;-81
2023/06/18 02:29:45;;;;;;;22.00;20.20;;;;;;;;;;5032522;28;20049;-81
2023/06/18 02:32:11;;;;;;;23.40;21.30;;;;;;;;;;5034233;28;20516;-81
2023/06/18 02:34:40;;;;;;;21.77;19.88;;;;;;;;;;5033144;28;20085;-81
2023/06/18 02:37:09;;;;;;;25.88;23.48;;;;;;;;;;5032693;28;20046;-81
2023/06/18 02:39:35;;;;;;;24.52;22.27;;;;;;;;;;5032587;28;20049;-81
2023/06/18 02:42:01;;;;;;;22.05;20.15;;;;;;;;;;5034094;28;20049;-81
2023/06/18 02:44:28;;;;;;;23.05;21.08;;;;;;;;;;5032967;28;20553;-81
2023/06/18 02:46:55;;;;;;;22.10;20.10;;;;;;;;;;5033016;28;20053;-81
2023/06/18 02:49:21;;;;;;;25.20;22.15;;;;;;;;;;5033858;28;20083;-81
2023/06/18 02:51:48;;;;;;;23.63;21.60;;;;;;;;;;5034289;28;20151;-81
2023/06/18 02:54:14;;;;;;;22.92;20.75;;;;;;;;;;5033747;28;20049;-81
2023/06/18 02:56:40;;;;;;;23.80;21.67;;;;;;;;;;5033838;28;20049;-81
2023/06/18 02:59:06;;;;;;;22.85;20.80;;;;;;;;;;5016559;28;20048;-81
2023/06/18 03:01:32;;;;;;;22.50;20.50;;;;;;;;;;5032886;28;20049;-82
2023/06/18 03:03:59;;;;;;;21.83;19.90;;;;;;;;;;5034054;28;20049;-81
2023/06/18 03:06:27;;;;;;;24.17;22.00;;;;;;;;;;5033586;28;20046;-81
2023/06/18 03:08:53;;;;;;;23.80;21.52;;;;;;;;;;5033245;28;20085;-81
2023/06/18 03:11:19;;;;;;;24.05;21.90;;;;;;;;;;5016183;28;20049;-81
2023/06/18 03:13:45;;;;;;;25.70;23.35;;;;;;;;;;5016242;28;20056;-81
2023/06/18 03:16:11;;;;;;;25.48;23.10;;;;;;;;;;5016202;28;20108;-80
2023/06/18 03:18:38;;;;;;;23.50;21.40;;;;;;;;;;5033771;28;20053;-81
2023/06/18 03:21:04;;;;;;;25.33;22.92;;;;;;;;;;5033593;28;20087;-81
2023/06/18 03:23:30;;;;;;;24.90;22.60;;;;;;;;;;5033422;28;20045;-81
2023/06/18 03:25:56;;;;;;;23.05;21.13;;;;;;;;;;5033562;28;20058;-81
2023/06/18 03:28:22;;;;;;;26.88;24.33;;;;;;;;;;5032354;28;20050;-80
2023/06/18 03:30:48;;;;;;;25.20;23.00;;;;;;;;;;5037717;28;20139;-81
2023/06/18 03:33:17;;;;;;;25.52;23.20;;;;;;;;;;5003933;28;20053;-80
2023/06/18 03:35:46;;;;;;;27.92;25.42;;;;;;;;;;5037734;28;20049;-80
2023/06/18 03:38:12;;;;;;;25.52;23.23;;;;;;;;;;5037090;28;20401;-81
2023/06/18 03:40:38;;;;;;;29.00;26.50;;;;;;;;;;5020278;28;20053;-81
2023/06/18 03:43:04;;;;;;;27.67;24.83;;;;;;;;;;5036459;28;20045;-81
2023/06/18 03:45:30;;;;;;;26.40;24.10;;;;;;;;;;5037474;28;20049;-81
2023/06/18 03:47:56;;;;;;;26.55;24.25;;;;;;;;;;5036068;28;20041;-82
2023/06/18 03:50:23;;;;;;;26.50;22.95;;;;;;;;;;5037205;28;20494;-81
2023/06/18 03:52:49;;;;;;;26.70;24.17;;;;;;;;;;5036336;28;20077;-81
2023/06/18 03:55:15;;;;;;;25.17;22.88;;;;;;;;;;5037356;28;20091;-81
2023/06/18 03:57:41;;;;;;;25.80;23.40;;;;;;;;;;5036073;28;20104;-81
2023/06/18 04:00:09;;;;;;;27.35;24.85;;;;;;;;;;5036011;28;20089;-81
2023/06/18 04:02:35;;;;;;;27.63;24.85;;;;;;;;;;5035934;28;20049;-81
2023/06/18 04:05:01;;;;;;;27.15;24.75;;;;;;;;;;5035813;28;20406;-81
2023/06/18 04:07:27;;;;;;;27.05;24.50;;;;;;;;;;5035482;28;20057;-82
2023/06/18 04:09:53;;;;;;;27.35;24.92;;;;;;;;;;5036552;28;20572;-80
2023/06/18 04:12:19;;;;;;;30.67;27.73;;;;;;;;;;5036313;28;20477;-81
2023/06/18 04:14:45;;;;;;;29.50;26.70;;;;;;;;;;5003115;28;20057;-81
2023/06/18 04:17:11;;;;;;;27.95;25.45;;;;;;;;;;5036321;28;20460;-82
2023/06/18 04:19:38;;;;;;;25.02;22.67;;;;;;;;;;5037379;28;20401;-81
2023/06/18 04:22:04;;;;;;;29.63;26.67;;;;;;;;;;5036745;28;20088;-81
2023/06/18 04:24:30;;;;;;;29.70;26.83;;;;;;;;;;5035525;28;20045;-82
2023/06/18 04:26:56;;;;;;;30.20;27.27;;;;;;;;;;5036518;28;20063;-81
2023/06/18 04:29:22;;;;;;;30.30;27.35;;;;;;;;;;5035290;28;20076;-81
2023/06/18 04:31:48;;;;;;;30.88;27.85;;;;;;;;;;5019876;28;20048;-82
2023/06/18 04:34:14;;;;;;;30.88;27.85;;;;;;;;;;5036877;28;20444;-82
2023/06/18 04:36:40;;;;;;;35.70;32.00;;;;;;;;;;5036195;28;20048;-81
2023/06/18 04:39:07;;;;;;;28.15;25.25;;;;;;;;;;5034847;28;20045;-81
2023/06/18 04:41:33;;;;;;;32.25;29.08;;;;;;;;;;5035729;28;20095;-81
2023/06/18 04:43:59;;;;;;;31.85;28.83;;;;;;;;;;5036370;28;20049;-82
2023/06/18 04:46:25;;;;;;;31.55;28.33;;;;;;;;;;5036216;28;20120;-82
2023/06/18 04:48:51;;;;;;;31.73;28.65;;;;;;;;;;5035300;28;20042;-82
2023/06/18 04:51:17;;;;;;;33.28;30.17;;;;;;;;;;5036363;28;20049;-81
2023/06/18 04:53:43;;;;;;;30.92;28.05;;;;;;;;;;5034926;28;20400;-82
2023/06/18 04:56:10;;;;;;;30.92;27.83;;;;;;;;;;5036092;28;20049;-82
2023/06/18 04:58:39;;;;;;;32.90;29.63;;;;;;;;;;5035006;28;20085;-82
2023/06/18 05:01:05;;;;;;;30.02;27.25;;;;;;;;;;5034794;28;20084;-82
2023/06/18 05:03:31;;;;;;;31.63;28.42;;;;;;;;;;5035939;28;20550;-82
2023/06/18 05:05:57;;;;;;;31.05;27.92;;;;;;;;;;5035083;28;20060;-81
2023/06/18 05:08:23;;;;;;;31.08;27.98;;;;;;;;;;5034131;28;20057;-83
2023/06/18 05:10:49;;;;;;;33.05;29.75;;;;;;;;;;5034790;28;20456;-82
2023/06/18 05:13:15;;;;;;;31.30;28.00;;;;;;;;;;5035881;28;20045;-83
2023/06/18 05:15:41;;;;;;;32.15;29.15;;;;;;;;;;5035838;28;20084;-82
2023/06/18 05:18:07;;;;;;;33.30;30.13;;;;;;;;;;5034947;28;20088;-82
2023/06/18 05:20:34;;;;;;;32.72;29.52;;;;;;;;;;5035909;28;20049;-82
2023/06/18 05:23:00;;;;;;;34.33;30.88;;;;;;;;;;5034712;28;20045;-82
2023/06/18 05:25:26;;;;;;;34.03;30.60;;;;;;;;;;5034089;28;20076;-76
2023/06/18 05:27:52;;;;;;;33.42;30.13;;;;;;;;;;5035242;28;20044;-78
2023/06/18 05:30:18;;;;;;;34.10;30.35;;;;;;;;;;5035425;28;20050;-78
2023/06/18 05:32:44;;;;;;;32.80;29.50;;;;;;;;;;5035371;28;20045;-78
2023/06/18 05:35:10;;;;;;;31.70;28.55;;;;;;;;;;5034291;28;20045;-77
2023/06/18 05:37:36;;;;;;;33.55;30.08;;;;;;;;;;5034606;28;20367;-78
2023/06/18 05:40:02;;;;;;;30.75;27.88;;;;;;;;;;5034277;28;20433;-78
2023/06/18 05:42:28;;;;;;;32.97;29.73;;;;;;;;;;5035091;28;20056;-78
2023/06/18 05:44:55;;;;;;;32.90;29.75;;;;;;;;;;5034999;28;20041;-78
2023/06/18 05:47:21;;;;;;;33.40;30.13;;;;;;;;;;5034063;28;20057;-78
2023/06/18 05:49:47;;;;;;;31.77;28.42;;;;;;;;;;5033911;28;20045;-78
2023/06/18 05:52:13;;;;;;;30.73;27.65;;;;;;;;;;5033959;28;20042;-78
2023/06/18 05:54:39;;;;;;;32.90;29.52;;;;;;;;;;5034792;28;20045;-78
2023/06/18 05:57:05;;;;;;;34.08;30.35;;;;;;;;;;5034725;28;20056;-78
2023/06/18 05:59:31;;;;;;;33.33;30.08;;;;;;;;;;5034686;28;20049;-78
2023/06/18 06:01:57;;;;;;;29.60;26.75;;;;;;;;;;5034633;28;20140;-78
2023/06/18 06:04:24;;;;;;;32.25;29.20;;;;;;;;;;5034692;28;20099;-78
2023/06/18 06:06:50;;;;;;;31.15;28.20;;;;;;;;;;5035086;28;20128;-78
2023/06/18 06:09:17;;;;;;;28.30;25.65;;;;;;;;;;5033970;28;20049;-78
2023/06/18 06:11:43;;;;;;;29.45;26.63;;;;;;;;;;5034731;28;20042;-78
2023/06/18 06:14:09;;;;;;;34.13;30.77;;;;;;;;;;5034518;28;20116;-78
2023/06/18 06:16:35;;;;;;;33.53;29.95;;;;;;;;;;5034327;28;20132;-82
2023/06/18 06:19:01;;;;;;;31.95;28.98;;;;;;;;;;5034368;28;20049;-77
2023/06/18 06:21:27;;;;;;;29.85;26.80;;;;;;;;;;5034381;28;20056;-77
2023/06/18 06:23:53;;;;;;;28.30;25.65;;;;;;;;;;5034150;28;20123;-77
2023/06/18 06:26:19;;;;;;;26.83;24.42;;;;;;;;;;5032772;28;20045;-76
2023/06/18 06:28:45;;;;;;;26.95;24.45;;;;;;;;;;5033692;28;20057;-78
2023/06/18 06:31:11;;;;;;;28.45;25.77;;;;;;;;;;5034112;28;20092;-77
2023/06/18 06:33:37;;;;;;;26.08;23.58;;;;;;;;;;5033079;28;20520;-80
2023/06/18 06:36:03;;;;;;;25.80;23.48;;;;;;;;;;5034123;28;20454;-77
2023/06/18 06:38:29;;;;;;;27.13;24.52;;;;;;;;;;5033151;28;20485;-77
2023/06/18 06:40:55;;;;;;;26.23;23.67;;;;;;;;;;5033048;28;20048;-77
2023/06/18 06:43:21;;;;;;;27.00;24.33;;;;;;;;;;5033740;28;20091;-77
2023/06/18 06:45:47;;;;;;;23.92;21.50;;;;;;;;;;5034318;28;20053;-76
2023/06/18 06:48:13;;;;;;;27.20;24.67;;;;;;;;;;5033857;28;20128;-77
2023/06/18 06:50:40;;;;;;;23.42;21.42;;;;;;;;;;5034189;28;20048;-77
2023/06/18 06:53:06;;;;;;;23.75;21.50;;;;;;;;;;5034036;28;20049;-76
2023/06/18 06:55:32;;;;;;;25.63;23.23;;;;;;;;;;5032865;28;20053;-77
2023/06/18 06:57:59;;;;;;;26.58;24.08;;;;;;;;;;5033750;28;20041;-76
2023/06/18 07:00:25;;;;;;;26.02;23.30;;;;;;;;;;5033482;28;20402;-82
2023/06/18 07:02:51;;;;;;;26.17;23.67;;;;;;;;;;5032311;28;20038;-82
2023/06/18 07:05:17;;;;;;;24.80;22.60;;;;;;;;;;5031916;28;20137;-82
2023/06/18 07:07:43;;;;;;;25.10;22.75;;;;;;;;;;5015615;28;20085;-83
2023/06/18 07:10:10;;;;;;;24.38;22.02;;;;;;;;;;5033657;28;20081;-82
2023/06/18 07:12:36;;;;;;;24.70;22.52;;;;;;;;;;5032725;28;20175;-82
2023/06/18 07:15:02;;;;;;;27.77;21.83;;;;;;;;;;5016024;28;20103;-82
2023/06/18 07:17:28;;;;;;;25.02;22.73;;;;;;;;;;5032348;28;20439;-82
2023/06/18 07:19:55;;;;;;;23.20;21.15;;;;;;;;;;5033621;28;20144;-82
2023/06/18 07:22:21;;;;;;;22.88;20.75;;;;;;;;;;5032175;28;20394;-83
2023/06/18 07:24:47;;;;;;;22.92;20.58;;;;;;;;;;5016022;28;20064;-83
2023/06/18 07:27:14;;;;;;;22.50;20.50;;;;;;;;;;5026656;28;20057;-83
2023/06/18 07:29:41;;;;;;;22.90;20.73;;;;;;;;;;4996336;28;20061;-82
2023/06/18 07:32:07;;;;;;;21.92;20.02;;;;;;;;;;5012473;28;20049;-83
2023/06/18 07:34:33;;;;;;;23.08;21.05;;;;;;;;;;5012741;28;20081;-82
2023/06/18 07:36:59;;;;;;;21.13;19.33;;;;;;;;;;5014592;28;20099;-83
2023/06/18 07:39:26;;;;;;;21.63;19.67;;;;;;;;;;5015437;28;20045;-82
2023/06/18 07:41:52;;;;;;;22.25;19.83;;;;;;;;;;5031991;28;20053;-81
2023/06/18 07:44:18;;;;;;;21.00;19.20;;;;;;;;;;5031971;28;20405;-82
2023/06/18 07:46:44;;;;;;;20.63;18.67;;;;;;;;;;5032224;28;20411;-83
2023/06/18 07:49:11;;;;;;;20.88;18.98;;;;;;;;;;5032208;28;20132;-83
2023/06/18 07:51:37;;;;;;;20.52;18.48;;;;;;;;;;4999543;28;20473;-82
2023/06/18 07:54:03;;;;;;;19.20;17.48;;;;;;;;;;5015699;28;20099;-82
2023/06/18 07:56:29;;;;;;;17.48;15.93;;;;;;;;;;5015593;28;20499;-81
2023/06/18 07:58:56;;;;;;;18.65;17.20;;;;;;;;;;5033215;28;20077;-83
2023/06/18 08:01:22;;;;;;;19.40;17.65;;;;;;;;;;5032298;28;20049;-82
2023/06/18 08:03:48;;;;;;;18.23;16.63;;;;;;;;;;5033181;28;20125;-82
2023/06/18 08:06:14;;;;;;;18.63;17.05;;;;;;;;;;5032954;28;20041;-83
2023/06/18 08:08:40;;;;;;;16.80;15.43;;;;;;;;;;5031851;28;20038;-82
2023/06/18 08:11:06;;;;;;;15.63;14.15;;;;;;;;;;5015730;28;20050;-82
2023/06/18 08:13:32;;;;;;;14.30;13.13;;;;;;;;;;5031158;28;20397;-82
2023/06/18 08:16:00;;;;;;;14.05;12.95;;;;;;;;;;5033378;28;20046;-82
2023/06/18 08:18:26;;;;;;;14.82;13.55;;;;;;;;;;5019569;28;20132;-82
2023/06/18 08:20:52;;;;;;;17.58;16.00;;;;;;;;;;5035552;28;20041;-82
2023/06/18 08:23:18;;;;;;;12.57;11.65;;;;;;;;;;5036096;28;20049;-82
2023/06/18 08:25:44;;;;;;;12.82;11.63;;;;;;;;;;5019448;28;20061;-82
2023/06/18 08:28:10;;;;;;;12.38;11.38;;;;;;;;;;5018754;28;20088;-82
2023/06/18 08:30:36;;;;;;;12.93;11.90;;;;;;;;;;5018886;28;20057;-82
2023/06/18 08:33:02;;;;;;;13.77;12.38;;;;;;;;;;5035709;28;20087;-84
2023/06/18 08:35:28;;;;;;;11.82;10.80;;;;;;;;;;5030796;28;20128;-84
2023/06/18 08:37:54;;;;;;;10.93;10.02;;;;;;;;;;5017218;28;20046;-83
2023/06/18 08:40:26;;;;;;;11.07;10.25;;;;;;;;;;5034132;28;20099;-84
2023/06/18 08:42:52;;;;;;;10.38;9.48;;;;;;;;;;5018135;28;20132;-83
2023/06/18 08:45:19;;;;;;;9.35;8.55;;;;;;;;;;5026938;28;20125;-83
2023/06/18 08:47:48;;;;;;;9.38;8.50;;;;;;;;;;5014747;28;20058;-85
2023/06/18 08:50:16;;;;;;;8.32;7.78;;;;;;;;;;4998233;28;20049;-84
2023/06/18 08:52:45;;;;;;;7.78;7.28;;;;;;;;;;5014490;28;20049;-83
2023/06/18 08:55:13;;;;;;;7.53;7.03;;;;;;;;;;4997932;28;20094;-83
2023/06/18 08:57:54;;;;;;;8.45;7.78;;;;;;;;;;5014403;28;20049;-84
2023/06/18 09:00:20;;;;;;;7.43;6.88;;;;;;;;;;5015350;28;20456;-83
2023/06/18 09:02:47;;;;;;;7.75;7.20;;;;;;;;;;5014427;28;20474;-83
2023/06/18 09:05:13;;;;;;;7.28;6.78;;;;;;;;;;5013844;28;20501;-83
2023/06/18 09:07:40;;;;;;;7.45;6.88;;;;;;;;;;5014013;28;20137;-84
2023/06/18 09:10:06;;;;;;;6.70;6.18;;;;;;;;;;5014758;28;20344;-84
2023/06/18 09:12:32;;;;;;;7.10;6.35;;;;;;;;;;5014383;28;20547;-84
2023/06/18 09:14:58;;;;;;;7.22;6.68;;;;;;;;;;5013898;28;20046;-83
2023/06/18 09:17:25;;;;;;;8.02;6.30;;;;;;;;;;5013876;28;20072;-83
2023/06/18 09:19:51;;;;;;;6.47;6.05;;;;;;;;;;4997793;28;20394;-83
2023/06/18 09:22:18;;;;;;;6.82;6.40;;;;;;;;;;4997991;28;20060;-84
2023/06/18 09:24:44;;;;;;;5.45;5.03;;;;;;;;;;5013744;28;20046;-84
2023/06/18 09:27:11;;;;;;;6.00;5.60;;;;;;;;;;5014918;28;20394;-84
2023/06/18 09:29:38;;;;;;;6.03;5.53;;;;;;;;;;5013701;28;20068;-84
2023/06/18 09:32:14;;;;;;;5.50;5.10;;;;;;;;;;5014005;28;20104;-83
2023/06/18 09:34:40;;;;;;;6.45;5.85;;;;;;;;;;5014055;28;20053;-84
2023/06/18 09:37:07;;;;;;;5.35;4.97;;;;;;;;;;5020969;28;20053;-84
2023/06/18 09:39:35;;;;;;;5.90;5.57;;;;;;;;;;5030722;28;20077;-84
2023/06/18 09:42:11;;;;;;;5.18;4.88;;;;;;;;;;5016021;28;20046;-85
2023/06/18 09:44:37;;;;;;;6.05;5.75;;;;;;;;;;5033189;28;20557;-86
2023/06/18 09:47:10;;;;;;;4.97;4.70;;;;;;;;;;5016660;28;20045;-84
2023/06/18 09:49:37;;;;;;;5.10;4.80;;;;;;;;;;5034355;28;20159;-86
2023/06/18 09:52:05;;;;;;;4.50;4.25;;;;;;;;;;5014735;28;20053;-87
2023/06/18 09:54:42;;;;;;;5.32;4.93;;;;;;;;;;5013354;28;20064;-86
2023/06/18 09:57:09;;;;;;;6.05;5.15;;;;;;;;;;5013223;28;20442;-86
2023/06/18 09:59:35;;;;;;;5.68;5.22;;;;;;;;;;5014352;28;20132;-87
2023/06/18 10:02:01;;;;;;;4.70;4.35;;;;;;;;;;5013408;28;20549;-87
2023/06/18 10:04:27;;;;;;;5.85;4.90;;;;;;;;;;5014694;28;20042;-86
2023/06/18 10:07:04;;;;;;;5.43;4.93;;;;;;;;;;5013998;28;20141;-85
2023/06/18 10:09:35;;;;;;;6.35;5.57;;;;;;;;;;5014363;28;20045;-86
2023/06/18 10:12:03;;;;;;;5.22;4.93;;;;;;;;;;5027720;28;20052;-84
2023/06/18 10:14:29;;;;;;;4.95;4.55;;;;;;;;;;5017321;28;20128;-84
2023/06/18 10:16:59;;;;;;;5.20;4.80;;;;;;;;;;5032950;28;20385;-84
2023/06/18 10:19:26;;;;;;;5.00;4.63;;;;;;;;;;5033727;28;20057;-85
2023/06/18 10:22:00;;;;;;;4.70;4.40;;;;;;;;;;5033674;28;20099;-85
2023/06/18 10:24:39;;;;;;;4.60;4.32;;;;;;;;;;5033606;28;20049;-84
2023/06/18 10:27:06;;;;;;;4.57;4.25;;;;;;;;;;5033479;28;20053;-84
2023/06/18 10:29:33;;;;;;;4.80;4.40;;;;;;;;;;5033150;28;20049;-85
2023/06/18 10:32:01;;;;;;;5.00;4.70;;;;;;;;;;5017175;28;20103;-85
2023/06/18 10:34:27;;;;;;;4.97;4.57;;;;;;;;;;5033475;28;20548;-85
2023/06/18 10:36:55;;;;;;;4.95;4.57;;;;;;;;;;5033237;28;20042;-84
2023/06/18 10:39:22;;;;;;;5.40;5.00;;;;;;;;;;5015442;28;20053;-83
2023/06/18 10:41:48;;;;;;;5.22;4.82;;;;;;;;;;5016659;28;20413;-83
2023/06/18 10:44:14;;;;;;;4.68;4.38;;;;;;;;;;5016136;28;20056;-84
2023/06/18 10:46:40;;;;;;;3.78;3.67;;;;;;;;;;5032412;28;20046;-84
2023/06/18 10:49:20;;;;;;;4.22;3.92;;;;;;;;;;5016661;28;20049;-83
2023/06/18 10:51:58;;;;;;;4.07;3.65;;;;;;;;;;5016212;28;20481;-83
2023/06/18 10:54:24;;;;;;;4.50;3.80;;;;;;;;;;5033073;28;20122;-83
2023/06/18 10:56:59;;;;;;;4.30;4.10;;;;;;;;;;5032839;28;20085;-83
2023/06/18 10:59:35;;;;;;;5.32;4.22;;;;;;;;;;5033197;28;20128;-83
2023/06/18 11:02:01;;;;;;;4.43;4.05;;;;;;;;;;5032593;28;20057;-83
2023/06/18 11:04:31;;;;;;;6.00;4.88;;;;;;;;;;5033825;28;20509;-83
2023/06/18 11:07:18;;;;;;;4.18;3.80;;;;;;;;;;5032943;28;20049;-83
2023/06/18 11:09:48;;;;;;;4.20;3.90;;;;;;;;;;5032233;28;20099;-83
2023/06/18 11:12:21;;;;;;;4.32;4.00;;;;;;;;;;5032450;28;20072;-84
2023/06/18 11:15:06;;;;;;;4.63;4.30;;;;;;;;;;5029066;28;20052;-85
2023/06/18 11:17:33;;;;;;;4.90;4.50;;;;;;;;;;5013823;28;20128;-85
2023/06/18 11:20:00;;;;;;;4.68;4.28;;;;;;;;;;5029017;28;20076;-85
2023/06/18 11:22:28;;;;;;;5.13;4.63;;;;;;;;;;5032945;28;20045;-86
2023/06/18 11:24:55;;;;;;;4.60;4.30;;;;;;;;;;5031662;28;20558;-84
2023/06/18 11:27:22;;;;;;;4.97;4.50;;;;;;;;;;5032967;28;20085;-85
2023/06/18 11:29:49;;;;;;;6.20;4.05;;;;;;;;;;5030698;28;20057;-84
2023/06/18 11:32:15;;;;;;;4.13;3.83;;;;;;;;;;5031749;28;20128;-84
2023/06/18 11:34:42;;;;;;;4.47;4.18;;;;;;;;;;5031337;28;20079;-84
2023/06/18 11:37:08;;;;;;;4.57;4.38;;;;;;;;;;5031184;28;20056;-84
2023/06/18 11:39:34;;;;;;;4.32;4.03;;;;;;;;;;5027636;28;20170;-84
2023/06/18 11:42:19;;;;;;;3.72;3.58;;;;;;;;;;5032445;28;20049;-82
2023/06/18 11:44:53;;;;;;;4.35;3.90;;;;;;;;;;5014261;28;20153;-84
2023/06/18 11:47:19;;;;;;;4.05;3.95;;;;;;;;;;5026331;28;20061;-83
2023/06/18 11:49:46;;;;;;;3.60;3.30;;;;;;;;;;5014886;28;20371;-83
2023/06/18 11:52:13;;;;;;;3.72;3.50;;;;;;;;;;5015178;28;20398;-83
2023/06/18 11:54:40;;;;;;;4.95;4.32;;;;;;;;;;5015814;28;20386;-84
2023/06/18 11:57:07;;;;;;;5.43;4.15;;;;;;;;;;5015539;28;20046;-83
2023/06/18 11:59:34;;;;;;;4.68;4.30;;;;;;;;;;5015943;28;20058;-83
2023/06/18 12:02:11;;;;;;;6.18;4.07;;;;;;;;;;5016303;28;20449;-83
2023/06/18 12:04:37;;;;;;;4.47;4.07;;;;;;;;;;5015665;28;20116;-83
2023/06/18 12:07:03;;;;;;;4.50;4.10;;;;;;;;;;5015457;28;20058;-83
2023/06/18 12:09:36;;;;;;;4.15;3.95;;;;;;;;;;5014977;28;20135;-83
2023/06/18 12:12:20;;;;;;;4.80;4.50;;;;;;;;;;5015296;28;20069;-83
2023/06/18 12:14:46;;;;;;;;;;;;;;;;;;5031430;28;20049;-82
2023/06/18 12:17:22;;;;;;;4.05;3.83;;;;;;;;;;5054626;28;20016;-82
2023/06/18 12:19:51;;;;;;;4.85;4.47;;;;;;;;;;5036084;28;20049;-82
2023/06/18 12:22:17;;;;;;;4.85;4.47;;;;;;;;;;5035803;28;20127;-83
2023/06/18 12:24:44;;;;;;;4.85;3.85;;;;;;;;;;5035069;28;20481;-83
2023/06/18 12:27:10;;;;;;;4.55;4.25;;;;;;;;;;5035292;28;20378;-83
2023/06/18 12:29:39;;;;;;;4.78;4.57;;;;;;;;;;5020416;28;20060;-83
2023/06/18 12:32:08;;;;;;;4.50;4.10;;;;;;;;;;5024689;28;20095;-84
2023/06/18 12:34:38;;;;;;;4.47;4.13;;;;;;;;;;5034767;28;20042;-84
2023/06/18 12:37:04;;;;;;;3.92;3.83;;;;;;;;;;5035417;28;20049;-84
2023/06/18 12:39:31;;;;;;;5.38;4.32;;;;;;;;;;5027669;28;20050;-84
2023/06/18 12:41:58;;;;;;;4.82;4.43;;;;;;;;;;5018513;28;20049;-84
2023/06/18 12:44:24;;;;;;;4.93;4.53;;;;;;;;;;5034829;28;20045;-85
2023/06/18 12:46:52;;;;;;;4.20;3.97;;;;;;;;;;5034690;28;20116;-84
2023/06/18 12:49:19;;;;;;;4.18;3.97;;;;;;;;;;5025794;28;20058;-84
2023/06/18 12:51:46;;;;;;;5.05;4.65;;;;;;;;;;5047998;28;20060;-85
2023/06/18 12:54:17;;;;;;;4.95;4.75;;;;;;;;;;5035425;28;20478;-85
2023/06/18 12:56:50;;;;;;;4.47;4.18;;;;;;;;;;5035323;28;20345;-84
2023/06/18 12:59:17;;;;;;;4.05;3.85;;;;;;;;;;5034502;28;20073;-84
2023/06/18 13:01:44;;;;;;;4.68;4.25;;;;;;;;;;5033129;28;20041;-84
2023/06/18 13:04:11;;;;;;;3.97;3.70;;;;;;;;;;5034352;28;20045;-84
2023/06/18 13:06:37;;;;;;;4.55;3.92;;;;;;;;;;5015161;28;20052;-84
2023/06/18 13:09:04;;;;;;;4.07;3.88;;;;;;;;;;5032331;28;20069;-83
2023/06/18 13:11:31;;;;;;;4.07;3.88;;;;;;;;;;5035869;28;20057;-83
2023/06/18 13:13:57;;;;;;;3.70;3.40;;;;;;;;;;5035836;28;20049;-83
2023/06/18 13:16:24;;;;;;;4.07;3.78;;;;;;;;;;5018105;28;20046;-83
2023/06/18 13:18:50;;;;;;;4.05;3.92;;;;;;;;;;5034301;28;20052;-84
2023/06/18 13:21:16;;;;;;;4.30;4.00;;;;;;;;;;5034372;28;20049;-84
2023/06/18 13:23:43;;;;;;;3.90;3.60;;;;;;;;;;5035291;28;20049;-84
2023/06/18 13:26:09;;;;;;;4.00;3.80;;;;;;;;;;5017721;28;20041;-84
2023/06/18 13:28:35;;;;;;;5.60;3.72;;;;;;;;;;5033526;28;20492;-84
2023/06/18 13:31:01;;;;;;;4.68;3.97;;;;;;;;;;5032380;28;20124;-84
2023/06/18 13:33:28;;;;;;;4.45;3.50;;;;;;;;;;5031101;28;20118;-85
2023/06/18 13:35:54;;;;;;;3.85;3.63;;;;;;;;;;5031595;28;20386;-85
2023/06/18 13:38:20;;;;;;;3.55;3.35;;;;;;;;;;5034681;28;20398;-85
2023/06/18 13:40:46;;;;;;;4.03;3.65;;;;;;;;;;5012400;28;20049;-84
2023/06/18 13:43:13;;;;;;;3.42;3.30;;;;;;;;;;5014390;28;20151;-85
2023/06/18 13:45:39;;;;;;;3.85;3.55;;;;;;;;;;5014785;28;20050;-85
2023/06/18 13:48:08;;;;;;;3.92;3.72;;;;;;;;;;5014506;28;20061;-84
2023/06/18 13:50:34;;;;;;;4.30;3.90;;;;;;;;;;5014399;28;20399;-84
2023/06/18 13:53:00;;;;;;;4.45;3.67;;;;;;;;;;5014860;28;20042;-85
2023/06/18 13:55:28;;;;;;;3.90;3.75;;;;;;;;;;5030775;28;20089;-85
2023/06/18 13:57:54;;;;;;;3.63;3.42;;;;;;;;;;5030515;28;20100;-84
2023/06/18 14:00:21;;;;;;;4.00;3.80;;;;;;;;;;5030564;28;20050;-84
2023/06/18 14:02:47;;;;;;;4.53;4.13;;;;;;;;;;5014211;28;20049;-83
2023/06/18 14:05:13;;;;;;;4.40;4.10;;;;;;;;;;5013780;28;20577;-84
2023/06/18 14:07:39;;;;;;;3.80;3.47;;;;;;;;;;5015049;28;20466;-83
2023/06/18 14:10:05;;;;;;;3.92;3.72;;;;;;;;;;5013505;28;20044;-86
2023/06/18 14:12:32;;;;;;;4.07;3.85;;;;;;;;;;5014753;28;20487;-88
2023/06/18 14:14:59;;;;;;;4.80;4.55;;;;;;;;;;5013435;28;20099;-85
2023/06/18 14:17:25;;;;;;;3.95;3.75;;;;;;;;;;5013978;28;20453;-87
2023/06/18 14:19:52;;;;;;;3.67;3.50;;;;;;;;;;4997982;28;20048;-87
2023/06/18 14:22:18;;;;;;;4.43;4.15;;;;;;;;;;5013839;28;20053;-86
2023/06/18 14:24:44;;;;;;;4.55;4.35;;;;;;;;;;5013828;28;20045;-86
2023/06/18 14:27:10;;;;;;;3.75;3.55;;;;;;;;;;5014121;28;20052;-87
2023/06/18 14:29:36;;;;;;;5.22;4.75;;;;;;;;;;5013476;28;20549;-86